Aviation Digital Data Service (ADDS)

Output produced by METARs form (1430 UTC 21 January 2018)
found at http://aviationweather.gov/adds/metars/
 
METAR text: KAUN 211415Z AUTO 10011KT 10SM FEW110 03/M02 A3026 RMK AO1
Conditions at: KAUN (AUBURN MUNI , CA, US) observed 1415 UTC 21 January 2018
Temperature: 3.0°C (37°F)
Dewpoint: -2.0°C (28°F) [RH = 70%]
Pressure (altimeter): 30.26 inches Hg (1024.8 mb)
Winds: from the E (100 degrees) at 13 MPH (11 knots; 5.7 m/s)
Visibility: 10 or more miles (16+ km)
Ceiling: at least 12,000 feet AGL
Clouds: few clouds at 11000 feet AGL
Weather: automated observation with no human augmentation;
there may or may not be significant weather present at this time